sensor_id;sensor_type;location;lat;lon;timestamp;temperature;humidity
12708;DHT22;6418;50.824;4.718;2022-10-18T00:01:12;15.40;99.90
12708;DHT22;6418;50.824;4.718;2022-10-18T00:03:39;15.40;99.90
12708;DHT22;6418;50.824;4.718;2022-10-18T00:06:07;15.40;99.90
12708;DHT22;6418;50.824;4.718;2022-10-18T00:08:35;15.40;99.90
12708;DHT22;6418;50.824;4.718;2022-10-18T00:11:02;15.40;99.90
12708;DHT22;6418;50.824;4.718;2022-10-18T00:13:29;15.40;99.90
12708;DHT22;6418;50.824;4.718;2022-10-18T00:15:58;15.40;99.90
12708;DHT22;6418;50.824;4.718;2022-10-18T00:18:27;15.40;99.90
12708;DHT22;6418;50.824;4.718;2022-10-18T00:20:59;15.40;99.90
12708;DHT22;6418;50.824;4.718;2022-10-18T00:23:27;15.40;99.90
12708;DHT22;6418;50.824;4.718;2022-10-18T00:25:59;15.40;99.90
12708;DHT22;6418;50.824;4.718;2022-10-18T00:28:25;15.40;99.90
12708;DHT22;6418;50.824;4.718;2022-10-18T00:30:52;15.40;99.90
12708;DHT22;6418;50.824;4.718;2022-10-18T00:33:19;15.40;99.90
12708;DHT22;6418;50.824;4.718;2022-10-18T00:35:47;15.40;99.90
12708;DHT22;6418;50.824;4.718;2022-10-18T00:38:14;15.40;99.90
12708;DHT22;6418;50.824;4.718;2022-10-18T00:40:41;15.30;99.90
12708;DHT22;6418;50.824;4.718;2022-10-18T00:43:14;15.40;99.90
12708;DHT22;6418;50.824;4.718;2022-10-18T00:45:41;15.30;99.90
12708;DHT22;6418;50.824;4.718;2022-10-18T00:48:08;15.40;99.90
12708;DHT22;6418;50.824;4.718;2022-10-18T00:50:37;15.30;99.90
12708;DHT22;6418;50.824;4.718;2022-10-18T00:53:09;15.30;99.90
12708;DHT22;6418;50.824;4.718;2022-10-18T00:55:38;15.30;99.90
12708;DHT22;6418;50.824;4.718;2022-10-18T00:58:05;15.30;99.90
12708;DHT22;6418;50.824;4.718;2022-10-18T01:00:33;15.30;99.90
12708;DHT22;6418;50.824;4.718;2022-10-18T01:03:04;15.30;99.90
12708;DHT22;6418;50.824;4.718;2022-10-18T01:05:31;15.30;99.90
12708;DHT22;6418;50.824;4.718;2022-10-18T01:08:25;15.30;99.90
12708;DHT22;6418;50.824;4.718;2022-10-18T01:11:03;15.30;99.90
12708;DHT22;6418;50.824;4.718;2022-10-18T01:13:41;15.30;99.90
12708;DHT22;6418;50.824;4.718;2022-10-18T01:16:16;15.40;99.90
12708;DHT22;6418;50.824;4.718;2022-10-18T01:18:51;15.40;99.90
12708;DHT22;6418;50.824;4.718;2022-10-18T01:21:28;15.30;99.90
12708;DHT22;6418;50.824;4.718;2022-10-18T01:24:35;15.40;99.90
12708;DHT22;6418;50.824;4.718;2022-10-18T01:27:34;15.30;99.90
12708;DHT22;6418;50.824;4.718;2022-10-18T01:30:33;15.40;99.90
12708;DHT22;6418;50.824;4.718;2022-10-18T01:33:05;15.30;99.90
12708;DHT22;6418;50.824;4.718;2022-10-18T01:35:46;15.30;99.90
12708;DHT22;6418;50.824;4.718;2022-10-18T01:38:16;15.30;99.90
12708;DHT22;6418;50.824;4.718;2022-10-18T01:40:46;15.30;99.90
12708;DHT22;6418;50.824;4.718;2022-10-18T01:43:16;15.30;99.90
12708;DHT22;6418;50.824;4.718;2022-10-18T01:45:46;15.30;99.90
12708;DHT22;6418;50.824;4.718;2022-10-18T01:48:13;15.30;99.90
12708;DHT22;6418;50.824;4.718;2022-10-18T01:50:41;15.30;99.90
12708;DHT22;6418;50.824;4.718;2022-10-18T01:53:21;15.30;99.90
12708;DHT22;6418;50.824;4.718;2022-10-18T01:55:55;15.30;99.90
12708;DHT22;6418;50.824;4.718;2022-10-18T01:58:30;15.30;99.90
12708;DHT22;6418;50.824;4.718;2022-10-18T02:01:07;15.30;99.90
12708;DHT22;6418;50.824;4.718;2022-10-18T02:03:36;15.30;99.90
12708;DHT22;6418;50.824;4.718;2022-10-18T02:06:12;15.30;99.90
12708;DHT22;6418;50.824;4.718;2022-10-18T02:08:47;15.30;99.90
12708;DHT22;6418;50.824;4.718;2022-10-18T02:11:16;15.30;99.90
12708;DHT22;6418;50.824;4.718;2022-10-18T02:13:46;15.30;99.90
12708;DHT22;6418;50.824;4.718;2022-10-18T02:16:19;15.30;99.90
12708;DHT22;6418;50.824;4.718;2022-10-18T02:18:49;15.30;99.90
12708;DHT22;6418;50.824;4.718;2022-10-18T02:21:18;15.20;99.90
12708;DHT22;6418;50.824;4.718;2022-10-18T02:23:47;15.30;99.90
12708;DHT22;6418;50.824;4.718;2022-10-18T02:26:15;15.20;99.90
12708;DHT22;6418;50.824;4.718;2022-10-18T02:28:42;15.20;99.90
12708;DHT22;6418;50.824;4.718;2022-10-18T02:31:14;15.20;99.90
12708;DHT22;6418;50.824;4.718;2022-10-18T02:33:51;15.20;99.90
12708;DHT22;6418;50.824;4.718;2022-10-18T02:36:23;15.20;99.90
12708;DHT22;6418;50.824;4.718;2022-10-18T02:38:54;15.20;99.90
12708;DHT22;6418;50.824;4.718;2022-10-18T02:41:23;15.20;99.90
12708;DHT22;6418;50.824;4.718;2022-10-18T02:43:50;15.20;99.90
12708;DHT22;6418;50.824;4.718;2022-10-18T02:46:19;15.20;99.90
12708;DHT22;6418;50.824;4.718;2022-10-18T02:48:48;15.20;99.90
12708;DHT22;6418;50.824;4.718;2022-10-18T02:51:15;15.20;99.90
12708;DHT22;6418;50.824;4.718;2022-10-18T02:53:42;15.10;99.90
12708;DHT22;6418;50.824;4.718;2022-10-18T02:56:09;15.10;99.90
12708;DHT22;6418;50.824;4.718;2022-10-18T02:58:36;15.10;99.90
12708;DHT22;6418;50.824;4.718;2022-10-18T03:01:03;15.10;99.90
12708;DHT22;6418;50.824;4.718;2022-10-18T03:03:30;15.10;99.90
12708;DHT22;6418;50.824;4.718;2022-10-18T03:05:58;15.10;99.90
12708;DHT22;6418;50.824;4.718;2022-10-18T03:08:25;15.10;99.90
12708;DHT22;6418;50.824;4.718;2022-10-18T03:10:52;15.10;99.90
12708;DHT22;6418;50.824;4.718;2022-10-18T03:13:19;15.10;99.90
12708;DHT22;6418;50.824;4.718;2022-10-18T03:15:46;15.10;99.90
12708;DHT22;6418;50.824;4.718;2022-10-18T03:18:13;15.10;99.90
12708;DHT22;6418;50.824;4.718;2022-10-18T03:20:41;15.10;99.90
12708;DHT22;6418;50.824;4.718;2022-10-18T03:23:09;15.10;99.90
12708;DHT22;6418;50.824;4.718;2022-10-18T03:25:36;15.10;99.90
12708;DHT22;6418;50.824;4.718;2022-10-18T03:28:03;15.10;99.90
12708;DHT22;6418;50.824;4.718;2022-10-18T03:30:30;15.10;99.90
12708;DHT22;6418;50.824;4.718;2022-10-18T03:32:57;15.10;99.90
12708;DHT22;6418;50.824;4.718;2022-10-18T03:35:24;15.10;99.90
12708;DHT22;6418;50.824;4.718;2022-10-18T03:37:50;15.10;99.90
12708;DHT22;6418;50.824;4.718;2022-10-18T03:40:19;15.10;99.90
12708;DHT22;6418;50.824;4.718;2022-10-18T03:42:46;15.10;99.90
12708;DHT22;6418;50.824;4.718;2022-10-18T03:45:13;15.10;99.90
12708;DHT22;6418;50.824;4.718;2022-10-18T03:47:39;15.10;99.90
12708;DHT22;6418;50.824;4.718;2022-10-18T03:50:07;15.20;99.90
12708;DHT22;6418;50.824;4.718;2022-10-18T03:52:34;15.20;99.90
12708;DHT22;6418;50.824;4.718;2022-10-18T03:55:01;15.20;99.90
12708;DHT22;6418;50.824;4.718;2022-10-18T03:57:29;15.20;99.90
12708;DHT22;6418;50.824;4.718;2022-10-18T03:59:56;15.20;99.90
12708;DHT22;6418;50.824;4.718;2022-10-18T04:02:23;15.20;99.90
12708;DHT22;6418;50.824;4.718;2022-10-18T04:04:50;15.20;99.90
12708;DHT22;6418;50.824;4.718;2022-10-18T04:07:17;15.20;99.90
12708;DHT22;6418;50.824;4.718;2022-10-18T04:09:44;15.30;99.90
12708;DHT22;6418;50.824;4.718;2022-10-18T04:12:11;15.20;99.90
12708;DHT22;6418;50.824;4.718;2022-10-18T04:14:39;15.20;99.90
12708;DHT22;6418;50.824;4.718;2022-10-18T04:17:06;15.20;99.90
12708;DHT22;6418;50.824;4.718;2022-10-18T04:19:33;15.20;99.90
12708;DHT22;6418;50.824;4.718;2022-10-18T04:22:00;15.10;99.90
12708;DHT22;6418;50.824;4.718;2022-10-18T04:24:27;15.20;99.90
12708;DHT22;6418;50.824;4.718;2022-10-18T04:26:54;15.10;99.90
12708;DHT22;6418;50.824;4.718;2022-10-18T04:29:21;15.10;99.90
12708;DHT22;6418;50.824;4.718;2022-10-18T04:31:49;15.10;99.90
12708;DHT22;6418;50.824;4.718;2022-10-18T04:34:16;15.20;99.90
12708;DHT22;6418;50.824;4.718;2022-10-18T04:36:43;15.10;99.90
12708;DHT22;6418;50.824;4.718;2022-10-18T04:39:10;15.10;99.90
12708;DHT22;6418;50.824;4.718;2022-10-18T04:41:37;15.10;99.90
12708;DHT22;6418;50.824;4.718;2022-10-18T04:44:04;15.10;99.90
12708;DHT22;6418;50.824;4.718;2022-10-18T04:46:31;15.10;99.90
12708;DHT22;6418;50.824;4.718;2022-10-18T04:48:59;15.10;99.90
12708;DHT22;6418;50.824;4.718;2022-10-18T04:51:26;15.10;99.90
12708;DHT22;6418;50.824;4.718;2022-10-18T04:53:53;15.10;99.90
12708;DHT22;6418;50.824;4.718;2022-10-18T04:56:20;15.10;99.90
12708;DHT22;6418;50.824;4.718;2022-10-18T04:58:47;15.10;99.90
12708;DHT22;6418;50.824;4.718;2022-10-18T05:01:14;15.10;99.90
12708;DHT22;6418;50.824;4.718;2022-10-18T05:03:43;15.10;99.90
12708;DHT22;6418;50.824;4.718;2022-10-18T05:06:11;15.10;99.90
12708;DHT22;6418;50.824;4.718;2022-10-18T05:08:38;15.10;99.90
12708;DHT22;6418;50.824;4.718;2022-10-18T05:11:05;15.10;99.90
12708;DHT22;6418;50.824;4.718;2022-10-18T05:13:32;15.10;99.90
12708;DHT22;6418;50.824;4.718;2022-10-18T05:15:59;15.10;99.90
12708;DHT22;6418;50.824;4.718;2022-10-18T05:18:27;15.10;99.90
12708;DHT22;6418;50.824;4.718;2022-10-18T05:20:54;15.10;99.90
12708;DHT22;6418;50.824;4.718;2022-10-18T05:23:22;15.10;99.90
12708;DHT22;6418;50.824;4.718;2022-10-18T05:25:49;15.10;99.90
12708;DHT22;6418;50.824;4.718;2022-10-18T05:28:16;15.10;99.90
12708;DHT22;6418;50.824;4.718;2022-10-18T05:30:43;15.10;99.90
12708;DHT22;6418;50.824;4.718;2022-10-18T05:33:10;15.10;99.90
12708;DHT22;6418;50.824;4.718;2022-10-18T05:35:37;15.00;99.90
12708;DHT22;6418;50.824;4.718;2022-10-18T05:38:04;15.00;99.90
12708;DHT22;6418;50.824;4.718;2022-10-18T05:40:33;15.00;99.90
12708;DHT22;6418;50.824;4.718;2022-10-18T05:43:00;15.00;99.90
12708;DHT22;6418;50.824;4.718;2022-10-18T05:45:26;15.00;99.90
12708;DHT22;6418;50.824;4.718;2022-10-18T05:47:54;15.00;99.90
12708;DHT22;6418;50.824;4.718;2022-10-18T05:50:20;15.00;99.90
12708;DHT22;6418;50.824;4.718;2022-10-18T05:52:50;15.00;99.90
12708;DHT22;6418;50.824;4.718;2022-10-18T05:55:17;15.00;99.90
12708;DHT22;6418;50.824;4.718;2022-10-18T05:57:49;15.00;99.90
12708;DHT22;6418;50.824;4.718;2022-10-18T06:00:16;14.90;99.90
12708;DHT22;6418;50.824;4.718;2022-10-18T06:02:43;14.90;99.90
12708;DHT22;6418;50.824;4.718;2022-10-18T06:05:10;14.80;99.90
12708;DHT22;6418;50.824;4.718;2022-10-18T06:07:37;14.90;99.90
12708;DHT22;6418;50.824;4.718;2022-10-18T06:10:05;14.80;99.90
12708;DHT22;6418;50.824;4.718;2022-10-18T06:12:32;14.80;99.90
12708;DHT22;6418;50.824;4.718;2022-10-18T06:15:00;14.80;99.90
12708;DHT22;6418;50.824;4.718;2022-10-18T06:17:27;14.80;99.90
12708;DHT22;6418;50.824;4.718;2022-10-18T06:19:54;14.80;99.90
12708;DHT22;6418;50.824;4.718;2022-10-18T06:22:20;14.70;99.90
12708;DHT22;6418;50.824;4.718;2022-10-18T06:24:47;14.70;99.90
12708;DHT22;6418;50.824;4.718;2022-10-18T06:27:14;14.70;99.90
12708;DHT22;6418;50.824;4.718;2022-10-18T06:29:41;14.70;99.90
12708;DHT22;6418;50.824;4.718;2022-10-18T06:32:09;14.70;99.90
12708;DHT22;6418;50.824;4.718;2022-10-18T06:34:36;14.60;99.90
12708;DHT22;6418;50.824;4.718;2022-10-18T06:37:03;14.60;99.90
12708;DHT22;6418;50.824;4.718;2022-10-18T06:39:30;14.60;99.90
12708;DHT22;6418;50.824;4.718;2022-10-18T06:41:57;14.60;99.90
12708;DHT22;6418;50.824;4.718;2022-10-18T06:44:24;14.60;99.90
12708;DHT22;6418;50.824;4.718;2022-10-18T06:46:51;14.60;99.90
12708;DHT22;6418;50.824;4.718;2022-10-18T06:49:20;14.60;99.90
12708;DHT22;6418;50.824;4.718;2022-10-18T06:51:47;14.60;99.90
12708;DHT22;6418;50.824;4.718;2022-10-18T06:54:15;14.60;99.90
12708;DHT22;6418;50.824;4.718;2022-10-18T06:56:41;14.60;99.90
12708;DHT22;6418;50.824;4.718;2022-10-18T06:59:08;14.60;99.90
12708;DHT22;6418;50.824;4.718;2022-10-18T07:01:35;14.60;99.90
12708;DHT22;6418;50.824;4.718;2022-10-18T07:04:02;14.60;99.90
12708;DHT22;6418;50.824;4.718;2022-10-18T07:06:31;14.60;99.90
12708;DHT22;6418;50.824;4.718;2022-10-18T07:08:58;14.60;99.90
12708;DHT22;6418;50.824;4.718;2022-10-18T07:11:27;14.70;99.90
12708;DHT22;6418;50.824;4.718;2022-10-18T07:13:58;14.70;99.90
12708;DHT22;6418;50.824;4.718;2022-10-18T07:16:27;14.70;99.90
12708;DHT22;6418;50.824;4.718;2022-10-18T07:18:54;14.70;99.90
12708;DHT22;6418;50.824;4.718;2022-10-18T07:21:23;14.70;99.90
12708;DHT22;6418;50.824;4.718;2022-10-18T07:23:52;14.70;99.90
12708;DHT22;6418;50.824;4.718;2022-10-18T07:26:21;14.70;99.90
12708;DHT22;6418;50.824;4.718;2022-10-18T07:28:51;14.70;99.90
12708;DHT22;6418;50.824;4.718;2022-10-18T07:31:19;14.70;99.90
12708;DHT22;6418;50.824;4.718;2022-10-18T07:33:46;14.70;99.90
12708;DHT22;6418;50.824;4.718;2022-10-18T07:36:13;14.70;99.90
12708;DHT22;6418;50.824;4.718;2022-10-18T07:38:40;14.70;99.90
12708;DHT22;6418;50.824;4.718;2022-10-18T07:41:10;14.70;99.90
12708;DHT22;6418;50.824;4.718;2022-10-18T07:43:40;14.70;99.90
12708;DHT22;6418;50.824;4.718;2022-10-18T07:46:08;14.70;99.90
12708;DHT22;6418;50.824;4.718;2022-10-18T07:48:35;14.70;99.90
12708;DHT22;6418;50.824;4.718;2022-10-18T07:51:03;14.70;99.90
12708;DHT22;6418;50.824;4.718;2022-10-18T07:53:30;14.70;99.90
12708;DHT22;6418;50.824;4.718;2022-10-18T07:55:59;14.70;99.90
12708;DHT22;6418;50.824;4.718;2022-10-18T07:58:28;14.60;99.90
12708;DHT22;6418;50.824;4.718;2022-10-18T08:00:55;14.60;99.90
12708;DHT22;6418;50.824;4.718;2022-10-18T08:03:21;14.60;99.90
12708;DHT22;6418;50.824;4.718;2022-10-18T08:05:52;14.60;99.90
12708;DHT22;6418;50.824;4.718;2022-10-18T08:08:19;14.60;99.90
12708;DHT22;6418;50.824;4.718;2022-10-18T08:10:46;14.60;99.90
12708;DHT22;6418;50.824;4.718;2022-10-18T08:13:14;14.50;99.90
12708;DHT22;6418;50.824;4.718;2022-10-18T08:15:43;14.60;99.90
12708;DHT22;6418;50.824;4.718;2022-10-18T08:18:10;14.60;99.90
12708;DHT22;6418;50.824;4.718;2022-10-18T08:20:41;14.60;99.90
12708;DHT22;6418;50.824;4.718;2022-10-18T08:23:08;14.60;99.90
12708;DHT22;6418;50.824;4.718;2022-10-18T08:25:35;14.70;99.90
12708;DHT22;6418;50.824;4.718;2022-10-18T08:28:02;14.70;99.90
12708;DHT22;6418;50.824;4.718;2022-10-18T08:30:29;14.70;99.90
12708;DHT22;6418;50.824;4.718;2022-10-18T08:32:57;14.70;99.90
12708;DHT22;6418;50.824;4.718;2022-10-18T08:35:24;14.70;99.90
12708;DHT22;6418;50.824;4.718;2022-10-18T08:37:51;14.70;99.90
12708;DHT22;6418;50.824;4.718;2022-10-18T08:40:18;14.70;99.90
12708;DHT22;6418;50.824;4.718;2022-10-18T08:42:55;14.70;99.90
12708;DHT22;6418;50.824;4.718;2022-10-18T08:45:24;14.70;99.90
12708;DHT22;6418;50.824;4.718;2022-10-18T08:47:53;14.80;99.90
12708;DHT22;6418;50.824;4.718;2022-10-18T08:50:27;14.90;99.90
12708;DHT22;6418;50.824;4.718;2022-10-18T08:53:04;14.90;99.90
12708;DHT22;6418;50.824;4.718;2022-10-18T08:55:35;14.90;99.90
12708;DHT22;6418;50.824;4.718;2022-10-18T08:58:14;14.90;99.90
12708;DHT22;6418;50.824;4.718;2022-10-18T09:00:47;14.90;99.90
12708;DHT22;6418;50.824;4.718;2022-10-18T09:03:46;15.00;99.90
12708;DHT22;6418;50.824;4.718;2022-10-18T09:06:20;15.00;99.90
12708;DHT22;6418;50.824;4.718;2022-10-18T09:09:07;15.10;99.90
12708;DHT22;6418;50.824;4.718;2022-10-18T09:11:46;15.10;99.90
12708;DHT22;6418;50.824;4.718;2022-10-18T09:14:32;15.20;99.90
12708;DHT22;6418;50.824;4.718;2022-10-18T09:17:10;15.20;99.90
12708;DHT22;6418;50.824;4.718;2022-10-18T09:19:49;15.20;99.90
12708;DHT22;6418;50.824;4.718;2022-10-18T09:22:25;15.30;99.90
12708;DHT22;6418;50.824;4.718;2022-10-18T09:24:59;15.30;99.90
12708;DHT22;6418;50.824;4.718;2022-10-18T09:27:36;15.40;99.90
12708;DHT22;6418;50.824;4.718;2022-10-18T09:30:09;15.40;99.90
12708;DHT22;6418;50.824;4.718;2022-10-18T09:32:46;15.40;99.90
12708;DHT22;6418;50.824;4.718;2022-10-18T09:35:17;15.50;99.90
12708;DHT22;6418;50.824;4.718;2022-10-18T09:37:47;15.60;99.90
12708;DHT22;6418;50.824;4.718;2022-10-18T09:40:18;15.60;99.90
12708;DHT22;6418;50.824;4.718;2022-10-18T09:42:52;15.70;99.90
12708;DHT22;6418;50.824;4.718;2022-10-18T09:45:25;15.80;99.90
12708;DHT22;6418;50.824;4.718;2022-10-18T09:48:03;15.90;99.90
12708;DHT22;6418;50.824;4.718;2022-10-18T09:50:34;16.00;99.90
12708;DHT22;6418;50.824;4.718;2022-10-18T09:53:10;16.20;99.90
12708;DHT22;6418;50.824;4.718;2022-10-18T09:55:47;16.30;99.90
12708;DHT22;6418;50.824;4.718;2022-10-18T09:58:19;16.30;99.90
12708;DHT22;6418;50.824;4.718;2022-10-18T10:00:47;16.40;99.90
12708;DHT22;6418;50.824;4.718;2022-10-18T10:03:15;16.40;99.90
12708;DHT22;6418;50.824;4.718;2022-10-18T10:05:42;16.50;99.90
12708;DHT22;6418;50.824;4.718;2022-10-18T10:08:11;16.50;99.90
12708;DHT22;6418;50.824;4.718;2022-10-18T10:10:41;16.50;99.90
12708;DHT22;6418;50.824;4.718;2022-10-18T10:13:14;16.50;99.90
12708;DHT22;6418;50.824;4.718;2022-10-18T10:15:45;16.60;99.90
12708;DHT22;6418;50.824;4.718;2022-10-18T10:18:19;16.70;99.90
12708;DHT22;6418;50.824;4.718;2022-10-18T10:20:48;16.80;99.90
12708;DHT22;6418;50.824;4.718;2022-10-18T10:23:20;16.80;99.90
12708;DHT22;6418;50.824;4.718;2022-10-18T10:25:50;16.80;99.90
12708;DHT22;6418;50.824;4.718;2022-10-18T10:28:19;16.80;99.90
12708;DHT22;6418;50.824;4.718;2022-10-18T10:30:47;16.80;99.90
12708;DHT22;6418;50.824;4.718;2022-10-18T10:33:32;16.80;99.90
12708;DHT22;6418;50.824;4.718;2022-10-18T10:36:01;16.80;99.90
12708;DHT22;6418;50.824;4.718;2022-10-18T10:38:30;16.80;99.90
12708;DHT22;6418;50.824;4.718;2022-10-18T10:40:58;16.80;99.90
12708;DHT22;6418;50.824;4.718;2022-10-18T10:43:27;16.80;99.90
12708;DHT22;6418;50.824;4.718;2022-10-18T10:45:58;16.80;99.90
12708;DHT22;6418;50.824;4.718;2022-10-18T10:48:27;16.90;99.90
12708;DHT22;6418;50.824;4.718;2022-10-18T10:51:00;16.90;99.90
12708;DHT22;6418;50.824;4.718;2022-10-18T10:53:40;17.00;99.90
12708;DHT22;6418;50.824;4.718;2022-10-18T10:56:20;17.00;99.90
12708;DHT22;6418;50.824;4.718;2022-10-18T10:58:47;16.90;99.90
12708;DHT22;6418;50.824;4.718;2022-10-18T11:01:29;17.00;99.90
12708;DHT22;6418;50.824;4.718;2022-10-18T11:03:58;17.00;99.90
12708;DHT22;6418;50.824;4.718;2022-10-18T11:06:33;17.00;99.90
12708;DHT22;6418;50.824;4.718;2022-10-18T11:09:11;17.00;99.90
12708;DHT22;6418;50.824;4.718;2022-10-18T11:11:53;17.00;99.90
12708;DHT22;6418;50.824;4.718;2022-10-18T11:14:24;17.00;99.90
12708;DHT22;6418;50.824;4.718;2022-10-18T11:16:57;17.10;99.90
12708;DHT22;6418;50.824;4.718;2022-10-18T11:19:36;17.10;99.90
12708;DHT22;6418;50.824;4.718;2022-10-18T11:22:05;17.00;99.90
12708;DHT22;6418;50.824;4.718;2022-10-18T11:24:38;17.10;99.90
12708;DHT22;6418;50.824;4.718;2022-10-18T11:27:11;17.00;99.90
12708;DHT22;6418;50.824;4.718;2022-10-18T11:30:09;17.10;99.90
12708;DHT22;6418;50.824;4.718;2022-10-18T11:32:44;17.10;99.90
12708;DHT22;6418;50.824;4.718;2022-10-18T11:35:25;17.10;99.90
12708;DHT22;6418;50.824;4.718;2022-10-18T11:38:03;17.10;99.90
12708;DHT22;6418;50.824;4.718;2022-10-18T11:40:44;17.10;99.90
12708;DHT22;6418;50.824;4.718;2022-10-18T11:43:17;17.10;99.90
12708;DHT22;6418;50.824;4.718;2022-10-18T11:45:53;17.10;99.90
12708;DHT22;6418;50.824;4.718;2022-10-18T11:48:38;17.10;99.90
12708;DHT22;6418;50.824;4.718;2022-10-18T11:51:11;17.20;99.90
12708;DHT22;6418;50.824;4.718;2022-10-18T11:53:47;17.10;99.90
12708;DHT22;6418;50.824;4.718;2022-10-18T11:56:21;17.10;99.90
12708;DHT22;6418;50.824;4.718;2022-10-18T11:59:07;17.20;99.90
12708;DHT22;6418;50.824;4.718;2022-10-18T12:01:44;17.20;99.90
12708;DHT22;6418;50.824;4.718;2022-10-18T12:04:19;17.20;99.90
12708;DHT22;6418;50.824;4.718;2022-10-18T12:06:49;17.10;99.90
12708;DHT22;6418;50.824;4.718;2022-10-18T12:09:24;17.10;99.90
12708;DHT22;6418;50.824;4.718;2022-10-18T12:11:56;17.20;99.90
12708;DHT22;6418;50.824;4.718;2022-10-18T12:14:26;17.10;99.90
12708;DHT22;6418;50.824;4.718;2022-10-18T12:16:58;17.10;99.90
12708;DHT22;6418;50.824;4.718;2022-10-18T12:19:28;17.10;99.90
12708;DHT22;6418;50.824;4.718;2022-10-18T12:21:57;17.10;99.90
12708;DHT22;6418;50.824;4.718;2022-10-18T12:24:29;17.10;99.90
12708;DHT22;6418;50.824;4.718;2022-10-18T12:27:00;17.10;99.90
12708;DHT22;6418;50.824;4.718;2022-10-18T12:29:31;17.10;99.90
12708;DHT22;6418;50.824;4.718;2022-10-18T12:32:04;17.10;99.90
12708;DHT22;6418;50.824;4.718;2022-10-18T12:34:37;17.10;99.90
12708;DHT22;6418;50.824;4.718;2022-10-18T12:40:03;17.20;99.90
12708;DHT22;6418;50.824;4.718;2022-10-18T12:42:33;17.10;99.90
12708;DHT22;6418;50.824;4.718;2022-10-18T12:45:23;17.20;99.90
12708;DHT22;6418;50.824;4.718;2022-10-18T12:47:50;17.20;99.90
12708;DHT22;6418;50.824;4.718;2022-10-18T12:50:33;17.20;99.90
12708;DHT22;6418;50.824;4.718;2022-10-18T12:53:05;17.20;99.90
12708;DHT22;6418;50.824;4.718;2022-10-18T12:55:40;17.20;99.90
12708;DHT22;6418;50.824;4.718;2022-10-18T12:58:26;17.40;99.90
12708;DHT22;6418;50.824;4.718;2022-10-18T13:00:59;17.40;99.90
12708;DHT22;6418;50.824;4.718;2022-10-18T13:04:00;17.40;99.90
12708;DHT22;6418;50.824;4.718;2022-10-18T13:07:15;17.40;99.90
12708;DHT22;6418;50.824;4.718;2022-10-18T13:13:19;17.40;99.90
12708;DHT22;6418;50.824;4.718;2022-10-18T13:15:53;17.50;99.90
12708;DHT22;6418;50.824;4.718;2022-10-18T13:18:26;17.60;99.90
12708;DHT22;6418;50.824;4.718;2022-10-18T13:21:07;17.60;99.90
12708;DHT22;6418;50.824;4.718;2022-10-18T13:23:41;17.60;99.90
12708;DHT22;6418;50.824;4.718;2022-10-18T13:26:18;17.50;99.90
12708;DHT22;6418;50.824;4.718;2022-10-18T13:28:54;17.60;99.90
12708;DHT22;6418;50.824;4.718;2022-10-18T13:31:28;17.60;99.90
12708;DHT22;6418;50.824;4.718;2022-10-18T13:34:15;17.60;99.90
12708;DHT22;6418;50.824;4.718;2022-10-18T13:36:43;17.60;99.90
12708;DHT22;6418;50.824;4.718;2022-10-18T13:39:18;17.70;99.90
12708;DHT22;6418;50.824;4.718;2022-10-18T13:42:31;17.70;99.90
12708;DHT22;6418;50.824;4.718;2022-10-18T13:51:12;17.90;99.90
12708;DHT22;6418;50.824;4.718;2022-10-18T13:53:49;17.80;99.90
12708;DHT22;6418;50.824;4.718;2022-10-18T13:56:32;17.80;99.90
12708;DHT22;6418;50.824;4.718;2022-10-18T13:59:13;17.80;99.90
12708;DHT22;6418;50.824;4.718;2022-10-18T14:01:53;17.80;99.90
12708;DHT22;6418;50.824;4.718;2022-10-18T14:04:37;17.80;99.90
12708;DHT22;6418;50.824;4.718;2022-10-18T14:07:06;17.80;99.90
12708;DHT22;6418;50.824;4.718;2022-10-18T14:09:43;17.80;99.90
12708;DHT22;6418;50.824;4.718;2022-10-18T14:12:16;17.80;99.90
12708;DHT22;6418;50.824;4.718;2022-10-18T14:14:52;17.80;99.90
12708;DHT22;6418;50.824;4.718;2022-10-18T14:17:27;17.80;99.90
12708;DHT22;6418;50.824;4.718;2022-10-18T14:19:59;17.80;99.90
12708;DHT22;6418;50.824;4.718;2022-10-18T14:22:33;17.80;99.90
12708;DHT22;6418;50.824;4.718;2022-10-18T14:25:02;17.80;99.90
12708;DHT22;6418;50.824;4.718;2022-10-18T14:27:30;17.80;99.90
12708;DHT22;6418;50.824;4.718;2022-10-18T14:30:13;17.80;99.90
12708;DHT22;6418;50.824;4.718;2022-10-18T14:32:43;17.80;99.90
12708;DHT22;6418;50.824;4.718;2022-10-18T14:35:19;17.80;99.90
12708;DHT22;6418;50.824;4.718;2022-10-18T14:37:49;17.90;99.90
12708;DHT22;6418;50.824;4.718;2022-10-18T14:40:27;17.80;99.90
12708;DHT22;6418;50.824;4.718;2022-10-18T14:42:54;17.80;99.90
12708;DHT22;6418;50.824;4.718;2022-10-18T14:45:22;17.80;99.90
12708;DHT22;6418;50.824;4.718;2022-10-18T14:47:49;17.80;99.90
12708;DHT22;6418;50.824;4.718;2022-10-18T14:50:20;17.80;99.90
12708;DHT22;6418;50.824;4.718;2022-10-18T14:52:49;17.80;99.90
12708;DHT22;6418;50.824;4.718;2022-10-18T14:55:20;17.80;99.90
12708;DHT22;6418;50.824;4.718;2022-10-18T14:57:48;17.80;99.90
12708;DHT22;6418;50.824;4.718;2022-10-18T15:00:20;17.80;99.90
12708;DHT22;6418;50.824;4.718;2022-10-18T15:02:50;17.80;99.90
12708;DHT22;6418;50.824;4.718;2022-10-18T15:05:20;17.80;99.90
12708;DHT22;6418;50.824;4.718;2022-10-18T15:07:50;17.80;99.90
12708;DHT22;6418;50.824;4.718;2022-10-18T15:10:19;17.80;99.90
12708;DHT22;6418;50.824;4.718;2022-10-18T15:12:47;17.80;99.90
12708;DHT22;6418;50.824;4.718;2022-10-18T15:15:18;17.80;99.90
12708;DHT22;6418;50.824;4.718;2022-10-18T15:17:47;17.80;99.90
12708;DHT22;6418;50.824;4.718;2022-10-18T15:20:20;17.80;99.90
12708;DHT22;6418;50.824;4.718;2022-10-18T15:22:51;17.80;99.90
12708;DHT22;6418;50.824;4.718;2022-10-18T15:25:21;17.70;99.90
12708;DHT22;6418;50.824;4.718;2022-10-18T15:27:51;17.70;99.90
12708;DHT22;6418;50.824;4.718;2022-10-18T15:30:22;17.70;99.90
12708;DHT22;6418;50.824;4.718;2022-10-18T15:32:54;17.70;99.90
12708;DHT22;6418;50.824;4.718;2022-10-18T15:35:24;17.70;99.90
12708;DHT22;6418;50.824;4.718;2022-10-18T15:37:54;17.70;99.90
12708;DHT22;6418;50.824;4.718;2022-10-18T15:40:34;17.60;99.90
12708;DHT22;6418;50.824;4.718;2022-10-18T15:43:03;17.60;99.90
12708;DHT22;6418;50.824;4.718;2022-10-18T15:45:34;17.60;99.90
12708;DHT22;6418;50.824;4.718;2022-10-18T15:48:17;17.60;99.90
12708;DHT22;6418;50.824;4.718;2022-10-18T15:50:46;17.50;99.90
12708;DHT22;6418;50.824;4.718;2022-10-18T15:53:35;17.50;99.90
12708;DHT22;6418;50.824;4.718;2022-10-18T15:56:11;17.50;99.90
12708;DHT22;6418;50.824;4.718;2022-10-18T15:58:40;17.40;99.90
12708;DHT22;6418;50.824;4.718;2022-10-18T16:01:14;17.40;99.90
12708;DHT22;6418;50.824;4.718;2022-10-18T16:03:42;17.40;99.90
12708;DHT22;6418;50.824;4.718;2022-10-18T16:06:10;17.30;99.90
12708;DHT22;6418;50.824;4.718;2022-10-18T16:08:40;17.30;99.90
12708;DHT22;6418;50.824;4.718;2022-10-18T16:11:12;17.30;99.90
12708;DHT22;6418;50.824;4.718;2022-10-18T16:13:39;17.30;99.90
12708;DHT22;6418;50.824;4.718;2022-10-18T16:16:10;17.20;99.90
12708;DHT22;6418;50.824;4.718;2022-10-18T16:18:38;17.20;99.90
12708;DHT22;6418;50.824;4.718;2022-10-18T16:21:05;17.10;99.90
12708;DHT22;6418;50.824;4.718;2022-10-18T16:23:32;17.10;99.90